sensor_id;sensor_type;location;lat;lon;timestamp;P1;durP1;ratioP1;P2;durP2;ratioP2
54125;SDS011;40360;52.992;6.796;2023-08-31T00:00:44;7.78;;;2.75;;
54125;SDS011;40360;52.992;6.796;2023-08-31T00:03:10;6.18;;;3.20;;
54125;SDS011;40360;52.992;6.796;2023-08-31T00:05:40;8.38;;;3.45;;
54125;SDS011;40360;52.992;6.796;2023-08-31T00:08:07;3.75;;;2.72;;
54125;SDS011;40360;52.992;6.796;2023-08-31T00:10:34;9.45;;;3.08;;
54125;SDS011;40360;52.992;6.796;2023-08-31T00:13:00;5.00;;;3.17;;
54125;SDS011;40360;52.992;6.796;2023-08-31T00:15:29;4.18;;;2.50;;
54125;SDS011;40360;52.992;6.796;2023-08-31T00:17:57;7.47;;;2.60;;
54125;SDS011;40360;52.992;6.796;2023-08-31T00:20:23;4.93;;;2.42;;
54125;SDS011;40360;52.992;6.796;2023-08-31T00:22:50;7.25;;;3.08;;
54125;SDS011;40360;52.992;6.796;2023-08-31T00:25:16;4.95;;;2.20;;
54125;SDS011;40360;52.992;6.796;2023-08-31T00:27:41;3.83;;;2.45;;
54125;SDS011;40360;52.992;6.796;2023-08-31T00:30:07;6.10;;;3.00;;
54125;SDS011;40360;52.992;6.796;2023-08-31T00:32:36;7.13;;;3.30;;
54125;SDS011;40360;52.992;6.796;2023-08-31T00:35:02;7.00;;;3.53;;
54125;SDS011;40360;52.992;6.796;2023-08-31T00:37:29;6.75;;;2.75;;
54125;SDS011;40360;52.992;6.796;2023-08-31T00:39:54;5.47;;;3.10;;
54125;SDS011;40360;52.992;6.796;2023-08-31T00:42:20;5.47;;;3.10;;
54125;SDS011;40360;52.992;6.796;2023-08-31T00:44:47;7.20;;;3.40;;
54125;SDS011;40360;52.992;6.796;2023-08-31T00:47:13;5.85;;;3.00;;
54125;SDS011;40360;52.992;6.796;2023-08-31T00:49:40;4.97;;;2.78;;
54125;SDS011;40360;52.992;6.796;2023-08-31T00:52:06;6.93;;;3.50;;
54125;SDS011;40360;52.992;6.796;2023-08-31T00:54:32;6.18;;;3.58;;
54125;SDS011;40360;52.992;6.796;2023-08-31T00:56:59;9.32;;;3.25;;
54125;SDS011;40360;52.992;6.796;2023-08-31T00:59:25;6.57;;;2.75;;
54125;SDS011;40360;52.992;6.796;2023-08-31T01:01:56;7.28;;;3.45;;
54125;SDS011;40360;52.992;6.796;2023-08-31T01:05:00;7.03;;;2.90;;
54125;SDS011;40360;52.992;6.796;2023-08-31T01:10:13;6.45;;;2.83;;
54125;SDS011;40360;52.992;6.796;2023-08-31T01:12:50;9.40;;;3.47;;
54125;SDS011;40360;52.992;6.796;2023-08-31T01:15:20;4.97;;;2.63;;
54125;SDS011;40360;52.992;6.796;2023-08-31T01:17:52;4.32;;;2.95;;
54125;SDS011;40360;52.992;6.796;2023-08-31T01:23:16;4.47;;;2.83;;
54125;SDS011;40360;52.992;6.796;2023-08-31T01:25:44;10.25;;;3.30;;
54125;SDS011;40360;52.992;6.796;2023-08-31T01:28:11;7.30;;;3.33;;
54125;SDS011;40360;52.992;6.796;2023-08-31T01:30:37;6.60;;;3.45;;
54125;SDS011;40360;52.992;6.796;2023-08-31T01:33:03;6.03;;;3.58;;
54125;SDS011;40360;52.992;6.796;2023-08-31T01:35:30;5.13;;;2.78;;
54125;SDS011;40360;52.992;6.796;2023-08-31T01:38:04;6.03;;;3.65;;
54125;SDS011;40360;52.992;6.796;2023-08-31T01:43:05;6.40;;;3.28;;
54125;SDS011;40360;52.992;6.796;2023-08-31T01:45:33;10.50;;;3.13;;
54125;SDS011;40360;52.992;6.796;2023-08-31T01:47:59;8.27;;;2.92;;
54125;SDS011;40360;52.992;6.796;2023-08-31T01:50:25;4.85;;;2.45;;
54125;SDS011;40360;52.992;6.796;2023-08-31T01:52:51;5.10;;;2.80;;
54125;SDS011;40360;52.992;6.796;2023-08-31T01:55:20;8.77;;;3.25;;
54125;SDS011;40360;52.992;6.796;2023-08-31T01:57:47;5.10;;;2.58;;
54125;SDS011;40360;52.992;6.796;2023-08-31T02:00:13;5.95;;;2.70;;
54125;SDS011;40360;52.992;6.796;2023-08-31T02:02:41;5.25;;;3.00;;
54125;SDS011;40360;52.992;6.796;2023-08-31T02:05:07;4.13;;;2.97;;
54125;SDS011;40360;52.992;6.796;2023-08-31T02:07:33;4.68;;;2.75;;
54125;SDS011;40360;52.992;6.796;2023-08-31T02:09:59;6.07;;;2.65;;
54125;SDS011;40360;52.992;6.796;2023-08-31T02:12:24;6.78;;;3.17;;
54125;SDS011;40360;52.992;6.796;2023-08-31T02:14:50;8.07;;;2.90;;
54125;SDS011;40360;52.992;6.796;2023-08-31T02:17:16;4.85;;;2.97;;
54125;SDS011;40360;52.992;6.796;2023-08-31T02:19:41;6.90;;;3.17;;
54125;SDS011;40360;52.992;6.796;2023-08-31T02:22:07;6.78;;;3.50;;
54125;SDS011;40360;52.992;6.796;2023-08-31T02:24:33;10.02;;;3.38;;
54125;SDS011;40360;52.992;6.796;2023-08-31T02:26:59;9.10;;;3.90;;
54125;SDS011;40360;52.992;6.796;2023-08-31T02:29:24;7.38;;;3.00;;
54125;SDS011;40360;52.992;6.796;2023-08-31T02:31:50;5.25;;;2.85;;
54125;SDS011;40360;52.992;6.796;2023-08-31T02:34:15;5.65;;;3.30;;
54125;SDS011;40360;52.992;6.796;2023-08-31T02:36:41;5.35;;;3.58;;
54125;SDS011;40360;52.992;6.796;2023-08-31T02:39:07;7.53;;;3.33;;
54125;SDS011;40360;52.992;6.796;2023-08-31T02:41:32;9.82;;;3.30;;
54125;SDS011;40360;52.992;6.796;2023-08-31T02:43:58;8.38;;;3.50;;
54125;SDS011;40360;52.992;6.796;2023-08-31T02:46:23;7.93;;;3.20;;
54125;SDS011;40360;52.992;6.796;2023-08-31T02:48:49;5.00;;;3.40;;
54125;SDS011;40360;52.992;6.796;2023-08-31T02:51:15;8.23;;;4.30;;
54125;SDS011;40360;52.992;6.796;2023-08-31T02:53:41;6.10;;;4.80;;
54125;SDS011;40360;52.992;6.796;2023-08-31T02:56:07;8.20;;;4.28;;
54125;SDS011;40360;52.992;6.796;2023-08-31T02:58:32;7.35;;;4.53;;
54125;SDS011;40360;52.992;6.796;2023-08-31T03:01:11;7.45;;;4.25;;
54125;SDS011;40360;52.992;6.796;2023-08-31T03:03:41;7.93;;;4.57;;
54125;SDS011;40360;52.992;6.796;2023-08-31T03:06:07;10.27;;;5.60;;
54125;SDS011;40360;52.992;6.796;2023-08-31T03:08:34;9.57;;;3.95;;
54125;SDS011;40360;52.992;6.796;2023-08-31T03:11:01;7.43;;;5.32;;
54125;SDS011;40360;52.992;6.796;2023-08-31T03:13:27;9.40;;;5.18;;
54125;SDS011;40360;52.992;6.796;2023-08-31T03:15:53;7.88;;;4.35;;
54125;SDS011;40360;52.992;6.796;2023-08-31T03:18:19;8.00;;;4.78;;
54125;SDS011;40360;52.992;6.796;2023-08-31T03:20:44;8.95;;;5.20;;
54125;SDS011;40360;52.992;6.796;2023-08-31T03:23:10;8.02;;;5.07;;
54125;SDS011;40360;52.992;6.796;2023-08-31T03:25:36;5.55;;;3.85;;
54125;SDS011;40360;52.992;6.796;2023-08-31T03:28:02;8.35;;;4.80;;
54125;SDS011;40360;52.992;6.796;2023-08-31T03:30:28;7.13;;;4.70;;
54125;SDS011;40360;52.992;6.796;2023-08-31T03:32:54;8.23;;;4.72;;
54125;SDS011;40360;52.992;6.796;2023-08-31T03:35:19;6.65;;;4.95;;
54125;SDS011;40360;52.992;6.796;2023-08-31T03:37:49;9.25;;;5.30;;
54125;SDS011;40360;52.992;6.796;2023-08-31T03:40:14;9.98;;;5.32;;
54125;SDS011;40360;52.992;6.796;2023-08-31T03:42:40;7.78;;;4.05;;
54125;SDS011;40360;52.992;6.796;2023-08-31T03:45:06;4.68;;;3.72;;
54125;SDS011;40360;52.992;6.796;2023-08-31T03:47:31;9.93;;;4.93;;
54125;SDS011;40360;52.992;6.796;2023-08-31T03:49:57;8.43;;;4.20;;
54125;SDS011;40360;52.992;6.796;2023-08-31T03:52:23;9.82;;;4.28;;
54125;SDS011;40360;52.992;6.796;2023-08-31T03:54:49;6.50;;;4.82;;
54125;SDS011;40360;52.992;6.796;2023-08-31T03:57:16;6.10;;;4.40;;
54125;SDS011;40360;52.992;6.796;2023-08-31T03:59:41;9.35;;;5.05;;
54125;SDS011;40360;52.992;6.796;2023-08-31T04:02:07;5.40;;;4.70;;
54125;SDS011;40360;52.992;6.796;2023-08-31T04:04:33;9.23;;;5.63;;
54125;SDS011;40360;52.992;6.796;2023-08-31T04:06:59;6.35;;;4.72;;
54125;SDS011;40360;52.992;6.796;2023-08-31T04:09:25;6.63;;;5.05;;
54125;SDS011;40360;52.992;6.796;2023-08-31T04:11:50;6.68;;;4.97;;
54125;SDS011;40360;52.992;6.796;2023-08-31T04:14:16;12.38;;;5.28;;
54125;SDS011;40360;52.992;6.796;2023-08-31T04:16:43;10.68;;;6.05;;
54125;SDS011;40360;52.992;6.796;2023-08-31T04:19:10;10.68;;;6.00;;
54125;SDS011;40360;52.992;6.796;2023-08-31T04:21:35;8.48;;;5.60;;
54125;SDS011;40360;52.992;6.796;2023-08-31T04:24:03;6.55;;;5.72;;
54125;SDS011;40360;52.992;6.796;2023-08-31T04:26:30;6.40;;;5.30;;
54125;SDS011;40360;52.992;6.796;2023-08-31T04:28:56;6.32;;;5.07;;
54125;SDS011;40360;52.992;6.796;2023-08-31T04:31:22;7.15;;;5.75;;
54125;SDS011;40360;52.992;6.796;2023-08-31T04:33:47;8.13;;;6.70;;
54125;SDS011;40360;52.992;6.796;2023-08-31T04:36:13;8.65;;;5.70;;
54125;SDS011;40360;52.992;6.796;2023-08-31T04:38:39;9.38;;;6.60;;
54125;SDS011;40360;52.992;6.796;2023-08-31T04:41:05;7.25;;;5.60;;
54125;SDS011;40360;52.992;6.796;2023-08-31T04:43:31;7.97;;;6.60;;
54125;SDS011;40360;52.992;6.796;2023-08-31T04:45:56;8.65;;;6.57;;
54125;SDS011;40360;52.992;6.796;2023-08-31T04:48:22;9.25;;;7.03;;
54125;SDS011;40360;52.992;6.796;2023-08-31T04:50:48;8.68;;;6.60;;
54125;SDS011;40360;52.992;6.796;2023-08-31T04:53:13;9.18;;;6.82;;
54125;SDS011;40360;52.992;6.796;2023-08-31T04:55:39;11.88;;;7.45;;
54125;SDS011;40360;52.992;6.796;2023-08-31T04:58:05;9.02;;;6.35;;
54125;SDS011;40360;52.992;6.796;2023-08-31T05:00:31;10.20;;;6.78;;
54125;SDS011;40360;52.992;6.796;2023-08-31T05:02:57;7.93;;;6.50;;
54125;SDS011;40360;52.992;6.796;2023-08-31T05:05:22;8.48;;;7.00;;
54125;SDS011;40360;52.992;6.796;2023-08-31T05:07:48;8.50;;;6.40;;
54125;SDS011;40360;52.992;6.796;2023-08-31T05:10:14;8.73;;;7.30;;
54125;SDS011;40360;52.992;6.796;2023-08-31T05:12:40;10.73;;;6.78;;
54125;SDS011;40360;52.992;6.796;2023-08-31T05:15:06;7.50;;;6.60;;
54125;SDS011;40360;52.992;6.796;2023-08-31T05:17:33;8.38;;;6.57;;
54125;SDS011;40360;52.992;6.796;2023-08-31T05:19:59;8.52;;;6.85;;
54125;SDS011;40360;52.992;6.796;2023-08-31T05:22:24;9.65;;;6.68;;
54125;SDS011;40360;52.992;6.796;2023-08-31T05:24:50;10.32;;;6.90;;
54125;SDS011;40360;52.992;6.796;2023-08-31T05:27:15;10.45;;;6.97;;
54125;SDS011;40360;52.992;6.796;2023-08-31T05:29:41;9.88;;;7.80;;
54125;SDS011;40360;52.992;6.796;2023-08-31T05:32:07;9.70;;;7.03;;
54125;SDS011;40360;52.992;6.796;2023-08-31T05:34:32;11.00;;;6.22;;
54125;SDS011;40360;52.992;6.796;2023-08-31T05:37:02;7.63;;;6.18;;
54125;SDS011;40360;52.992;6.796;2023-08-31T05:39:30;8.45;;;6.50;;
54125;SDS011;40360;52.992;6.796;2023-08-31T05:41:56;11.18;;;6.85;;
54125;SDS011;40360;52.992;6.796;2023-08-31T06:02:30;11.45;;;7.35;;
54125;SDS011;40360;52.992;6.796;2023-08-31T06:04:56;9.10;;;6.60;;
54125;SDS011;40360;52.992;6.796;2023-08-31T06:07:21;9.68;;;6.68;;
54125;SDS011;40360;52.992;6.796;2023-08-31T06:09:47;8.85;;;6.45;;
54125;SDS011;40360;52.992;6.796;2023-08-31T06:12:13;7.88;;;6.50;;
54125;SDS011;40360;52.992;6.796;2023-08-31T06:14:39;11.75;;;6.63;;
54125;SDS011;40360;52.992;6.796;2023-08-31T06:17:05;11.00;;;6.45;;
54125;SDS011;40360;52.992;6.796;2023-08-31T06:19:30;9.32;;;5.47;;
54125;SDS011;40360;52.992;6.796;2023-08-31T06:21:56;8.65;;;5.10;;
54125;SDS011;40360;52.992;6.796;2023-08-31T06:24:21;8.48;;;5.82;;
54125;SDS011;40360;52.992;6.796;2023-08-31T06:26:47;8.57;;;4.78;;
54125;SDS011;40360;52.992;6.796;2023-08-31T06:29:13;9.18;;;5.13;;
54125;SDS011;40360;52.992;6.796;2023-08-31T06:31:39;7.18;;;5.15;;
54125;SDS011;40360;52.992;6.796;2023-08-31T06:34:05;6.20;;;5.03;;
54125;SDS011;40360;52.992;6.796;2023-08-31T06:36:30;8.80;;;4.45;;
54125;SDS011;40360;52.992;6.796;2023-08-31T06:38:56;5.60;;;3.97;;
54125;SDS011;40360;52.992;6.796;2023-08-31T06:41:21;9.35;;;3.97;;
54125;SDS011;40360;52.992;6.796;2023-08-31T06:43:47;9.23;;;3.95;;
54125;SDS011;40360;52.992;6.796;2023-08-31T06:46:13;7.65;;;3.88;;
54125;SDS011;40360;52.992;6.796;2023-08-31T06:48:39;10.48;;;4.10;;
54125;SDS011;40360;52.992;6.796;2023-08-31T06:51:04;5.63;;;3.40;;
54125;SDS011;40360;52.992;6.796;2023-08-31T06:53:30;4.10;;;3.10;;
54125;SDS011;40360;52.992;6.796;2023-08-31T06:55:58;5.45;;;2.78;;
54125;SDS011;40360;52.992;6.796;2023-08-31T06:58:24;5.47;;;2.90;;
54125;SDS011;40360;52.992;6.796;2023-08-31T07:00:50;5.03;;;3.03;;
54125;SDS011;40360;52.992;6.796;2023-08-31T07:03:15;5.47;;;2.90;;
54125;SDS011;40360;52.992;6.796;2023-08-31T07:05:42;5.18;;;2.55;;
54125;SDS011;40360;52.992;6.796;2023-08-31T07:08:08;13.02;;;4.22;;
54125;SDS011;40360;52.992;6.796;2023-08-31T07:10:34;5.38;;;2.25;;
54125;SDS011;40360;52.992;6.796;2023-08-31T07:13:03;6.03;;;2.35;;
54125;SDS011;40360;52.992;6.796;2023-08-31T07:15:29;5.15;;;2.28;;
54125;SDS011;40360;52.992;6.796;2023-08-31T07:17:55;5.30;;;1.85;;
54125;SDS011;40360;52.992;6.796;2023-08-31T07:20:20;4.78;;;2.08;;
54125;SDS011;40360;52.992;6.796;2023-08-31T07:22:46;4.32;;;2.00;;
54125;SDS011;40360;52.992;6.796;2023-08-31T07:25:11;5.32;;;2.22;;
54125;SDS011;40360;52.992;6.796;2023-08-31T07:27:37;2.20;;;1.38;;
54125;SDS011;40360;52.992;6.796;2023-08-31T07:30:03;4.28;;;1.52;;
54125;SDS011;40360;52.992;6.796;2023-08-31T07:32:31;6.07;;;1.73;;
54125;SDS011;40360;52.992;6.796;2023-08-31T07:34:57;4.13;;;1.60;;
54125;SDS011;40360;52.992;6.796;2023-08-31T07:37:23;5.60;;;2.15;;
54125;SDS011;40360;52.992;6.796;2023-08-31T07:39:49;3.20;;;1.40;;
54125;SDS011;40360;52.992;6.796;2023-08-31T07:42:15;7.72;;;1.58;;
54125;SDS011;40360;52.992;6.796;2023-08-31T07:44:40;3.70;;;1.45;;
54125;SDS011;40360;52.992;6.796;2023-08-31T07:47:09;5.50;;;2.00;;
54125;SDS011;40360;52.992;6.796;2023-08-31T07:49:35;4.78;;;1.60;;
54125;SDS011;40360;52.992;6.796;2023-08-31T07:52:00;3.10;;;2.10;;
54125;SDS011;40360;52.992;6.796;2023-08-31T07:54:27;4.10;;;1.52;;
54125;SDS011;40360;52.992;6.796;2023-08-31T07:56:53;4.32;;;1.50;;
54125;SDS011;40360;52.992;6.796;2023-08-31T07:59:19;3.97;;;1.50;;
54125;SDS011;40360;52.992;6.796;2023-08-31T08:01:44;3.78;;;1.73;;
54125;SDS011;40360;52.992;6.796;2023-08-31T08:04:11;3.78;;;1.65;;
54125;SDS011;40360;52.992;6.796;2023-08-31T08:06:37;5.13;;;1.63;;
54125;SDS011;40360;52.992;6.796;2023-08-31T08:09:02;3.28;;;1.23;;
54125;SDS011;40360;52.992;6.796;2023-08-31T08:11:29;7.95;;;2.55;;
54125;SDS011;40360;52.992;6.796;2023-08-31T08:13:56;2.75;;;1.25;;
54125;SDS011;40360;52.992;6.796;2023-08-31T08:16:21;2.95;;;1.00;;
54125;SDS011;40360;52.992;6.796;2023-08-31T08:18:47;3.13;;;1.30;;
54125;SDS011;40360;52.992;6.796;2023-08-31T08:21:13;4.20;;;1.50;;
54125;SDS011;40360;52.992;6.796;2023-08-31T08:23:39;3.83;;;1.30;;
54125;SDS011;40360;52.992;6.796;2023-08-31T08:26:04;5.95;;;2.30;;
54125;SDS011;40360;52.992;6.796;2023-08-31T08:28:30;2.72;;;1.80;;
54125;SDS011;40360;52.992;6.796;2023-08-31T08:30:56;3.38;;;1.55;;
54125;SDS011;40360;52.992;6.796;2023-08-31T08:33:21;3.35;;;1.52;;
54125;SDS011;40360;52.992;6.796;2023-08-31T08:35:47;4.82;;;1.63;;
54125;SDS011;40360;52.992;6.796;2023-08-31T08:38:13;4.05;;;1.70;;
54125;SDS011;40360;52.992;6.796;2023-08-31T08:40:38;2.95;;;1.42;;
54125;SDS011;40360;52.992;6.796;2023-08-31T08:43:06;4.15;;;1.40;;
54125;SDS011;40360;52.992;6.796;2023-08-31T08:45:36;6.20;;;1.30;;
54125;SDS011;40360;52.992;6.796;2023-08-31T08:48:07;7.20;;;2.72;;
54125;SDS011;40360;52.992;6.796;2023-08-31T08:50:34;4.28;;;1.48;;
54125;SDS011;40360;52.992;6.796;2023-08-31T08:53:01;4.20;;;1.33;;
54125;SDS011;40360;52.992;6.796;2023-08-31T08:55:27;11.15;;;1.92;;
54125;SDS011;40360;52.992;6.796;2023-08-31T08:57:53;5.18;;;1.52;;
54125;SDS011;40360;52.992;6.796;2023-08-31T09:00:19;4.25;;;1.10;;
54125;SDS011;40360;52.992;6.796;2023-08-31T09:02:45;5.72;;;0.98;;
54125;SDS011;40360;52.992;6.796;2023-08-31T09:05:11;3.47;;;1.05;;
54125;SDS011;40360;52.992;6.796;2023-08-31T09:07:38;3.47;;;0.80;;
54125;SDS011;40360;52.992;6.796;2023-08-31T09:10:24;4.97;;;1.10;;
54125;SDS011;40360;52.992;6.796;2023-08-31T09:12:58;1.77;;;0.90;;
54125;SDS011;40360;52.992;6.796;2023-08-31T09:15:25;4.75;;;1.02;;
54125;SDS011;40360;52.992;6.796;2023-08-31T09:17:51;2.90;;;0.82;;
54125;SDS011;40360;52.992;6.796;2023-08-31T09:20:16;2.75;;;0.82;;
54125;SDS011;40360;52.992;6.796;2023-08-31T09:22:42;2.40;;;0.70;;
54125;SDS011;40360;52.992;6.796;2023-08-31T09:25:13;3.85;;;1.35;;
54125;SDS011;40360;52.992;6.796;2023-08-31T09:27:39;2.70;;;0.93;;
54125;SDS011;40360;52.992;6.796;2023-08-31T09:30:08;4.60;;;0.95;;
54125;SDS011;40360;52.992;6.796;2023-08-31T09:32:34;1.73;;;0.70;;
54125;SDS011;40360;52.992;6.796;2023-08-31T09:35:02;1.77;;;1.00;;
54125;SDS011;40360;52.992;6.796;2023-08-31T09:37:28;4.53;;;0.75;;
54125;SDS011;40360;52.992;6.796;2023-08-31T09:39:54;3.58;;;0.90;;
54125;SDS011;40360;52.992;6.796;2023-08-31T09:42:20;3.50;;;0.80;;
54125;SDS011;40360;52.992;6.796;2023-08-31T09:44:47;2.60;;;0.75;;
54125;SDS011;40360;52.992;6.796;2023-08-31T09:47:14;1.63;;;0.73;;
54125;SDS011;40360;52.992;6.796;2023-08-31T09:49:41;4.50;;;1.20;;
54125;SDS011;40360;52.992;6.796;2023-08-31T09:52:09;6.78;;;1.40;;
54125;SDS011;40360;52.992;6.796;2023-08-31T09:54:35;5.00;;;0.98;;
54125;SDS011;40360;52.992;6.796;2023-08-31T09:57:01;4.15;;;1.10;;
54125;SDS011;40360;52.992;6.796;2023-08-31T09:59:28;1.55;;;0.70;;
54125;SDS011;40360;52.992;6.796;2023-08-31T10:01:54;4.35;;;1.40;;
54125;SDS011;40360;52.992;6.796;2023-08-31T10:04:26;3.97;;;0.75;;
54125;SDS011;40360;52.992;6.796;2023-08-31T10:06:54;4.30;;;1.27;;
54125;SDS011;40360;52.992;6.796;2023-08-31T10:09:20;1.25;;;0.70;;
54125;SDS011;40360;52.992;6.796;2023-08-31T10:11:46;3.22;;;0.93;;
54125;SDS011;40360;52.992;6.796;2023-08-31T10:14:12;3.47;;;1.10;;
54125;SDS011;40360;52.992;6.796;2023-08-31T10:16:39;2.42;;;0.98;;
54125;SDS011;40360;52.992;6.796;2023-08-31T10:19:05;3.22;;;0.98;;
54125;SDS011;40360;52.992;6.796;2023-08-31T10:21:31;1.98;;;0.90;;
54125;SDS011;40360;52.992;6.796;2023-08-31T10:23:58;3.15;;;0.90;;
54125;SDS011;40360;52.992;6.796;2023-08-31T10:26:27;1.55;;;0.88;;
54125;SDS011;40360;52.992;6.796;2023-08-31T10:28:55;2.15;;;0.82;;
54125;SDS011;40360;52.992;6.796;2023-08-31T10:31:22;2.83;;;0.80;;
54125;SDS011;40360;52.992;6.796;2023-08-31T10:36:22;1.30;;;0.70;;
54125;SDS011;40360;52.992;6.796;2023-08-31T10:39:04;2.53;;;1.23;;
54125;SDS011;40360;52.992;6.796;2023-08-31T10:41:32;3.92;;;0.82;;
54125;SDS011;40360;52.992;6.796;2023-08-31T10:44:02;2.63;;;0.95;;
54125;SDS011;40360;52.992;6.796;2023-08-31T10:46:44;2.78;;;0.73;;
54125;SDS011;40360;52.992;6.796;2023-08-31T10:51:36;0.63;;;0.63;;
54125;SDS011;40360;52.992;6.796;2023-08-31T10:56:51;2.10;;;0.80;;
54125;SDS011;40360;52.992;6.796;2023-08-31T10:59:20;2.88;;;1.45;;
54125;SDS011;40360;52.992;6.796;2023-08-31T11:01:54;0.43;;;0.43;;
54125;SDS011;40360;52.992;6.796;2023-08-31T11:04:25;4.05;;;0.60;;
54125;SDS011;40360;52.992;6.796;2023-08-31T11:09:44;0.50;;;0.50;;
54125;SDS011;40360;52.992;6.796;2023-08-31T11:12:11;1.58;;;0.80;;
54125;SDS011;40360;52.992;6.796;2023-08-31T11:14:37;1.08;;;0.60;;
54125;SDS011;40360;52.992;6.796;2023-08-31T11:17:04;3.10;;;0.70;;
54125;SDS011;40360;52.992;6.796;2023-08-31T11:19:31;2.50;;;0.88;;
54125;SDS011;40360;52.992;6.796;2023-08-31T11:21:57;2.08;;;1.08;;
54125;SDS011;40360;52.992;6.796;2023-08-31T11:24:25;1.75;;;0.80;;
54125;SDS011;40360;52.992;6.796;2023-08-31T11:26:51;2.03;;;0.90;;
54125;SDS011;40360;52.992;6.796;2023-08-31T11:29:17;3.42;;;1.08;;
54125;SDS011;40360;52.992;6.796;2023-08-31T11:31:43;1.15;;;0.88;;
54125;SDS011;40360;52.992;6.796;2023-08-31T11:34:11;1.17;;;0.80;;
54125;SDS011;40360;52.992;6.796;2023-08-31T11:36:41;4.13;;;0.98;;
54125;SDS011;40360;52.992;6.796;2023-08-31T11:39:08;2.72;;;1.10;;
54125;SDS011;40360;52.992;6.796;2023-08-31T11:41:35;3.03;;;0.75;;
54125;SDS011;40360;52.992;6.796;2023-08-31T11:44:03;2.58;;;0.75;;
54125;SDS011;40360;52.992;6.796;2023-08-31T11:46:30;2.05;;;0.70;;
54125;SDS011;40360;52.992;6.796;2023-08-31T11:48:56;2.17;;;0.70;;
54125;SDS011;40360;52.992;6.796;2023-08-31T11:51:23;2.65;;;0.98;;
54125;SDS011;40360;52.992;6.796;2023-08-31T11:53:50;2.33;;;0.73;;
54125;SDS011;40360;52.992;6.796;2023-08-31T11:56:15;2.38;;;0.93;;
54125;SDS011;40360;52.992;6.796;2023-08-31T11:58:42;3.15;;;0.95;;
54125;SDS011;40360;52.992;6.796;2023-08-31T12:01:11;1.27;;;0.80;;
54125;SDS011;40360;52.992;6.796;2023-08-31T12:03:44;2.78;;;0.73;;
54125;SDS011;40360;52.992;6.796;2023-08-31T12:06:10;3.00;;;1.00;;
54125;SDS011;40360;52.992;6.796;2023-08-31T12:08:36;1.45;;;0.73;;
54125;SDS011;40360;52.992;6.796;2023-08-31T12:11:03;1.13;;;0.50;;
54125;SDS011;40360;52.992;6.796;2023-08-31T12:13:32;1.17;;;0.43;;
54125;SDS011;40360;52.992;6.796;2023-08-31T12:15:57;1.75;;;0.70;;
54125;SDS011;40360;52.992;6.796;2023-08-31T12:18:23;2.83;;;0.80;;
54125;SDS011;40360;52.992;6.796;2023-08-31T12:20:50;0.63;;;0.47;;
54125;SDS011;40360;52.992;6.796;2023-08-31T12:23:16;2.22;;;0.70;;
54125;SDS011;40360;52.992;6.796;2023-08-31T12:25:52;1.60;;;0.85;;
54125;SDS011;40360;52.992;6.796;2023-08-31T12:28:19;2.05;;;0.95;;
54125;SDS011;40360;52.992;6.796;2023-08-31T12:30:50;0.93;;;0.68;;
54125;SDS011;40360;52.992;6.796;2023-08-31T12:33:17;4.63;;;1.33;;
54125;SDS011;40360;52.992;6.796;2023-08-31T12:35:43;4.22;;;0.82;;
54125;SDS011;40360;52.992;6.796;2023-08-31T12:38:09;2.72;;;0.70;;
54125;SDS011;40360;52.992;6.796;2023-08-31T12:40:36;2.05;;;0.65;;
54125;SDS011;40360;52.992;6.796;2023-08-31T12:43:04;1.85;;;0.93;;
54125;SDS011;40360;52.992;6.796;2023-08-31T12:45:30;3.03;;;1.20;;
54125;SDS011;40360;52.992;6.796;2023-08-31T12:47:56;1.40;;;0.73;;
54125;SDS011;40360;52.992;6.796;2023-08-31T12:50:21;2.85;;;0.70;;
54125;SDS011;40360;52.992;6.796;2023-08-31T12:52:48;1.45;;;0.85;;
54125;SDS011;40360;52.992;6.796;2023-08-31T12:55:13;4.40;;;1.25;;
54125;SDS011;40360;52.992;6.796;2023-08-31T12:57:40;4.15;;;1.25;;
54125;SDS011;40360;52.992;6.796;2023-08-31T13:00:07;3.85;;;1.10;;
54125;SDS011;40360;52.992;6.796;2023-08-31T13:02:39;2.97;;;0.75;;
54125;SDS011;40360;52.992;6.796;2023-08-31T13:05:06;2.65;;;1.10;;
54125;SDS011;40360;52.992;6.796;2023-08-31T13:07:33;2.08;;;0.75;;
54125;SDS011;40360;52.992;6.796;2023-08-31T13:10:00;1.88;;;0.90;;
54125;SDS011;40360;52.992;6.796;2023-08-31T13:12:31;4.35;;;0.80;;
54125;SDS011;40360;52.992;6.796;2023-08-31T13:14:58;2.85;;;0.70;;
54125;SDS011;40360;52.992;6.796;2023-08-31T13:17:24;3.03;;;1.20;;
54125;SDS011;40360;52.992;6.796;2023-08-31T13:19:57;2.97;;;1.10;;
54125;SDS011;40360;52.992;6.796;2023-08-31T13:22:23;1.30;;;0.85;;
54125;SDS011;40360;52.992;6.796;2023-08-31T13:24:50;4.03;;;1.48;;
54125;SDS011;40360;52.992;6.796;2023-08-31T13:27:16;2.80;;;1.20;;
54125;SDS011;40360;52.992;6.796;2023-08-31T13:29:42;3.65;;;0.95;;
54125;SDS011;40360;52.992;6.796;2023-08-31T13:32:09;4.45;;;0.95;;
54125;SDS011;40360;52.992;6.796;2023-08-31T13:34:35;2.67;;;0.90;;
54125;SDS011;40360;52.992;6.796;2023-08-31T13:37:04;3.13;;;1.08;;
54125;SDS011;40360;52.992;6.796;2023-08-31T13:39:30;2.47;;;1.00;;
54125;SDS011;40360;52.992;6.796;2023-08-31T13:41:56;2.28;;;1.20;;
54125;SDS011;40360;52.992;6.796;2023-08-31T13:44:22;2.70;;;1.20;;
54125;SDS011;40360;52.992;6.796;2023-08-31T13:46:48;6.32;;;1.23;;
54125;SDS011;40360;52.992;6.796;2023-08-31T13:49:14;3.40;;;1.20;;
54125;SDS011;40360;52.992;6.796;2023-08-31T13:51:40;4.72;;;1.45;;
54125;SDS011;40360;52.992;6.796;2023-08-31T13:54:06;4.28;;;1.92;;
54125;SDS011;40360;52.992;6.796;2023-08-31T13:56:33;3.60;;;1.27;;
54125;SDS011;40360;52.992;6.796;2023-08-31T13:58:59;5.40;;;1.65;;
54125;SDS011;40360;52.992;6.796;2023-08-31T14:01:25;6.57;;;1.95;;
54125;SDS011;40360;52.992;6.796;2023-08-31T14:03:50;3.95;;;1.35;;
54125;SDS011;40360;52.992;6.796;2023-08-31T14:06:16;1.92;;;1.05;;
54125;SDS011;40360;52.992;6.796;2023-08-31T14:08:42;3.97;;;1.10;;
54125;SDS011;40360;52.992;6.796;2023-08-31T14:11:08;6.28;;;0.95;;
54125;SDS011;40360;52.992;6.796;2023-08-31T14:13:33;4.82;;;1.20;;
54125;SDS011;40360;52.992;6.796;2023-08-31T14:15:59;1.67;;;0.85;;
54125;SDS011;40360;52.992;6.796;2023-08-31T14:18:26;2.50;;;0.90;;
54125;SDS011;40360;52.992;6.796;2023-08-31T14:20:54;7.55;;;1.08;;
54125;SDS011;40360;52.992;6.796;2023-08-31T14:23:20;2.60;;;0.88;;
54125;SDS011;40360;52.992;6.796;2023-08-31T14:25:45;2.58;;;1.08;;
54125;SDS011;40360;52.992;6.796;2023-08-31T14:28:11;4.70;;;1.27;;
54125;SDS011;40360;52.992;6.796;2023-08-31T14:30:37;2.15;;;0.90;;
54125;SDS011;40360;52.992;6.796;2023-08-31T14:33:03;4.57;;;1.48;;
54125;SDS011;40360;52.992;6.796;2023-08-31T14:35:29;4.15;;;1.88;;
54125;SDS011;40360;52.992;6.796;2023-08-31T14:37:56;4.70;;;1.52;;
54125;SDS011;40360;52.992;6.796;2023-08-31T14:40:23;3.95;;;1.23;;
54125;SDS011;40360;52.992;6.796;2023-08-31T14:42:48;3.22;;;1.02;;
54125;SDS011;40360;52.992;6.796;2023-08-31T14:45:14;3.72;;;1.42;;
54125;SDS011;40360;52.992;6.796;2023-08-31T14:47:40;4.43;;;1.73;;
54125;SDS011;40360;52.992;6.796;2023-08-31T14:50:06;3.67;;;1.40;;
54125;SDS011;40360;52.992;6.796;2023-08-31T14:52:33;4.93;;;1.38;;
54125;SDS011;40360;52.992;6.796;2023-08-31T14:54:59;4.63;;;1.27;;
54125;SDS011;40360;52.992;6.796;2023-08-31T14:57:25;5.93;;;1.40;;
54125;SDS011;40360;52.992;6.796;2023-08-31T14:59:51;3.08;;;1.20;;
54125;SDS011;40360;52.992;6.796;2023-08-31T15:02:19;6.10;;;2.05;;
54125;SDS011;40360;52.992;6.796;2023-08-31T15:04:47;5.05;;;0.90;;
54125;SDS011;40360;52.992;6.796;2023-08-31T15:07:15;4.40;;;1.30;;
54125;SDS011;40360;52.992;6.796;2023-08-31T15:09:41;4.57;;;1.27;;
54125;SDS011;40360;52.992;6.796;2023-08-31T15:12:07;1.48;;;0.90;;
54125;SDS011;40360;52.992;6.796;2023-08-31T15:14:33;4.40;;;1.48;;
54125;SDS011;40360;52.992;6.796;2023-08-31T15:16:59;3.67;;;2.00;;
54125;SDS011;40360;52.992;6.796;2023-08-31T15:19:24;3.28;;;1.20;;
54125;SDS011;40360;52.992;6.796;2023-08-31T15:21:50;5.70;;;1.30;;